Hauptseite
METAR-TAF:

METAR-TAF

Flughäfen :

Flughafen Donegal

Donegal, Irland

Breite: 55-02-39N, Länge: 8-20-28W, Höhe: 9 m

Beobachtung

Neuester Wetterbericht von vor 22 Minuten, um 12:00 UTC
Wind 20 kt aus Süd
Temperatur 13°C
Luftfeuchtigkeit 82%
Luftdruck 1017 hPa
Sichtweite 10 km oder mehr
Leicht bewölkt in der Höhe von 2500 ft
Durchbrochene Bewölkung in der Höhe von 3100 ft

METAR: EIDL 161200Z 17020KT 9999 FEW025 BKN031 13/10 Q1017

Zeit: 12:22 (12:22 UTC)

Prognose

Neuester Wetterbericht von vor 1 Stunde und 22 Minuten, um 11:00 UTC
Gültige Prognose vom 16 um 12 UTC bis 16 um 21 UTC
Wind 18 kt aus Süd/Südost
Sichtweite 10 km oder mehr
Leicht bewölkt in der Höhe von 1200 ft
Durchbrochene Bewölkung in der Höhe von 2500 ft
Zeitweise
vom 16 um 12 UTC bis 16 um 21 UTC
Wind 20 kt aus Süd/Südost, Böen bis zu 30 kt

TAF: EIDL 161100Z 1612/1621 16018KT 9999 FEW012 BKN025 TEMPO 1612/1621 15020G30KT

Wetterbeobachtungen und Prognosen von mehr als 4000 Flughäfen (METAR und TAF Bericht).

Die verfügbaren Stationen werden durch gelbe und rote Markierungen auf der Karte dargestellt.

Führen Sie die Maus auf sie, um den Namen der Station zu sehen.

Darauf klicken, um die Beobachtung von Wetterbeobachtungen und Prognosen zu sehen.

Um die Karte zu ändern : klicken Sie auf den grünen Tasten mit einem schwarzen Kreuz Zum Vergrößern, auf den grünen Button mit einem Gedankenstrich zu verkleinern, oder auf die grünen Pfeile für benachbarte Karten.


METAR-TAF: